In Rescue
 
Open Full Screen Window  High Contrast Mode
Wind Gusting 00 knots
04
July 23, 2019 12:39 AM EDT
Weather Information
Wind Direction
  320 °
Wind Speed
  04 kt (5 mph)
Wind Gust
  00 kt (0 mph)
Altimeter
29.99 in
Visibility
10 SM
Temperature
16° C
61° F
Dewpoint
09° C
48° F
Humidity
63%
1hr Rain Fall
00.00 in.
24hr Rain Fall
00.00 in.
Sky Condition
Clear
VFR

METAR KDRM 230439Z AUTO 32004KT 10SM CLR 16/09 A2999 RMK AO2 T01580090

FAA Disclaimer: The data displayed is for advisory purposes only and is not to be used for flight planning or operations.